sensor_id;sensor_type;location;lat;lon;timestamp;P1;durP1;ratioP1;P2;durP2;ratioP2
41885;SDS011;27567;43.084;25.616;2023-03-03T00:02:06;56.63;;;27.23;;
41885;SDS011;27567;43.084;25.616;2023-03-03T00:04:50;56.03;;;27.88;;
41885;SDS011;27567;43.084;25.616;2023-03-03T00:07:34;55.60;;;26.80;;
41885;SDS011;27567;43.084;25.616;2023-03-03T00:10:18;58.88;;;29.17;;
41885;SDS011;27567;43.084;25.616;2023-03-03T00:13:02;55.85;;;28.35;;
41885;SDS011;27567;43.084;25.616;2023-03-03T00:15:46;60.55;;;29.25;;
41885;SDS011;27567;43.084;25.616;2023-03-03T00:18:34;57.53;;;28.50;;
41885;SDS011;27567;43.084;25.616;2023-03-03T00:21:21;67.03;;;30.17;;
41885;SDS011;27567;43.084;25.616;2023-03-03T00:24:21;59.45;;;29.48;;
41885;SDS011;27567;43.084;25.616;2023-03-03T00:27:16;67.03;;;28.80;;
41885;SDS011;27567;43.084;25.616;2023-03-03T00:30:16;62.57;;;28.57;;
41885;SDS011;27567;43.084;25.616;2023-03-03T00:32:59;61.08;;;28.20;;
41885;SDS011;27567;43.084;25.616;2023-03-03T00:35:43;62.70;;;30.02;;
41885;SDS011;27567;43.084;25.616;2023-03-03T00:38:27;65.53;;;29.45;;
41885;SDS011;27567;43.084;25.616;2023-03-03T00:41:15;67.28;;;29.27;;
41885;SDS011;27567;43.084;25.616;2023-03-03T00:44:18;63.22;;;28.63;;
41885;SDS011;27567;43.084;25.616;2023-03-03T00:53:03;58.72;;;28.67;;
41885;SDS011;27567;43.084;25.616;2023-03-03T00:55:48;58.55;;;28.48;;
41885;SDS011;27567;43.084;25.616;2023-03-03T00:58:32;61.53;;;28.10;;
41885;SDS011;27567;43.084;25.616;2023-03-03T01:01:16;58.88;;;28.23;;
41885;SDS011;27567;43.084;25.616;2023-03-03T01:04:00;57.70;;;30.27;;
41885;SDS011;27567;43.084;25.616;2023-03-03T01:06:45;64.15;;;29.02;;
41885;SDS011;27567;43.084;25.616;2023-03-03T01:09:30;58.40;;;27.42;;
41885;SDS011;27567;43.084;25.616;2023-03-03T01:12:14;55.70;;;27.30;;
41885;SDS011;27567;43.084;25.616;2023-03-03T01:14:58;53.63;;;26.63;;
41885;SDS011;27567;43.084;25.616;2023-03-03T01:17:42;58.58;;;28.88;;
41885;SDS011;27567;43.084;25.616;2023-03-03T01:20:26;61.40;;;29.73;;
41885;SDS011;27567;43.084;25.616;2023-03-03T01:23:11;58.63;;;28.85;;
41885;SDS011;27567;43.084;25.616;2023-03-03T01:25:55;61.10;;;28.02;;
41885;SDS011;27567;43.084;25.616;2023-03-03T01:28:39;59.70;;;30.13;;
41885;SDS011;27567;43.084;25.616;2023-03-03T01:31:23;57.22;;;28.60;;
41885;SDS011;27567;43.084;25.616;2023-03-03T01:34:07;62.15;;;30.83;;
41885;SDS011;27567;43.084;25.616;2023-03-03T01:36:51;61.78;;;29.85;;
41885;SDS011;27567;43.084;25.616;2023-03-03T01:39:35;51.53;;;25.67;;
41885;SDS011;27567;43.084;25.616;2023-03-03T01:42:19;60.30;;;27.88;;
41885;SDS011;27567;43.084;25.616;2023-03-03T01:45:17;54.58;;;27.63;;
41885;SDS011;27567;43.084;25.616;2023-03-03T01:51:35;66.38;;;28.92;;
41885;SDS011;27567;43.084;25.616;2023-03-03T01:54:27;59.67;;;29.08;;
41885;SDS011;27567;43.084;25.616;2023-03-03T01:57:14;64.63;;;30.45;;
41885;SDS011;27567;43.084;25.616;2023-03-03T01:59:59;64.88;;;29.45;;
41885;SDS011;27567;43.084;25.616;2023-03-03T02:02:44;63.45;;;28.98;;
41885;SDS011;27567;43.084;25.616;2023-03-03T02:05:29;73.97;;;31.05;;
41885;SDS011;27567;43.084;25.616;2023-03-03T02:08:14;62.08;;;29.80;;
41885;SDS011;27567;43.084;25.616;2023-03-03T02:10:59;62.20;;;28.23;;
41885;SDS011;27567;43.084;25.616;2023-03-03T02:13:44;63.05;;;28.70;;
41885;SDS011;27567;43.084;25.616;2023-03-03T02:16:28;66.85;;;29.88;;
41885;SDS011;27567;43.084;25.616;2023-03-03T02:19:58;62.47;;;28.92;;
41885;SDS011;27567;43.084;25.616;2023-03-03T02:22:20;64.18;;;28.50;;
41885;SDS011;27567;43.084;25.616;2023-03-03T02:25:06;62.83;;;29.15;;
41885;SDS011;27567;43.084;25.616;2023-03-03T02:27:51;64.38;;;30.05;;
41885;SDS011;27567;43.084;25.616;2023-03-03T02:30:36;62.90;;;29.55;;
41885;SDS011;27567;43.084;25.616;2023-03-03T02:33:19;63.33;;;28.80;;
41885;SDS011;27567;43.084;25.616;2023-03-03T02:36:03;62.58;;;29.35;;
41885;SDS011;27567;43.084;25.616;2023-03-03T02:44:25;62.50;;;28.85;;
41885;SDS011;27567;43.084;25.616;2023-03-03T02:47:10;63.20;;;29.25;;
41885;SDS011;27567;43.084;25.616;2023-03-03T02:49:54;60.30;;;29.23;;
41885;SDS011;27567;43.084;25.616;2023-03-03T02:52:38;66.43;;;29.92;;
41885;SDS011;27567;43.084;25.616;2023-03-03T02:55:21;58.25;;;28.13;;
41885;SDS011;27567;43.084;25.616;2023-03-03T02:58:05;61.55;;;28.17;;
41885;SDS011;27567;43.084;25.616;2023-03-03T03:00:49;69.22;;;30.33;;
41885;SDS011;27567;43.084;25.616;2023-03-03T03:03:33;66.28;;;29.80;;
41885;SDS011;27567;43.084;25.616;2023-03-03T03:06:18;65.05;;;31.00;;
41885;SDS011;27567;43.084;25.616;2023-03-03T03:09:03;61.60;;;28.33;;
41885;SDS011;27567;43.084;25.616;2023-03-03T03:11:47;64.63;;;30.10;;
41885;SDS011;27567;43.084;25.616;2023-03-03T03:14:31;57.50;;;28.05;;
41885;SDS011;27567;43.084;25.616;2023-03-03T03:17:15;64.57;;;29.27;;
41885;SDS011;27567;43.084;25.616;2023-03-03T03:19:59;65.50;;;30.50;;
41885;SDS011;27567;43.084;25.616;2023-03-03T03:22:42;67.60;;;30.17;;
41885;SDS011;27567;43.084;25.616;2023-03-03T03:25:26;65.47;;;29.50;;
41885;SDS011;27567;43.084;25.616;2023-03-03T03:28:14;57.15;;;28.75;;
41885;SDS011;27567;43.084;25.616;2023-03-03T03:30:58;68.57;;;30.85;;
41885;SDS011;27567;43.084;25.616;2023-03-03T03:33:42;61.33;;;29.38;;
41885;SDS011;27567;43.084;25.616;2023-03-03T03:36:26;66.07;;;28.75;;
41885;SDS011;27567;43.084;25.616;2023-03-03T03:39:10;61.28;;;28.65;;
41885;SDS011;27567;43.084;25.616;2023-03-03T03:41:54;66.22;;;29.58;;
41885;SDS011;27567;43.084;25.616;2023-03-03T03:44:38;64.78;;;29.10;;
41885;SDS011;27567;43.084;25.616;2023-03-03T03:47:22;67.57;;;31.52;;
41885;SDS011;27567;43.084;25.616;2023-03-03T03:50:06;60.97;;;30.95;;
41885;SDS011;27567;43.084;25.616;2023-03-03T03:52:50;63.13;;;28.67;;
41885;SDS011;27567;43.084;25.616;2023-03-03T03:55:34;59.78;;;29.35;;
41885;SDS011;27567;43.084;25.616;2023-03-03T03:58:18;64.05;;;29.10;;
41885;SDS011;27567;43.084;25.616;2023-03-03T04:01:03;63.58;;;29.98;;
41885;SDS011;27567;43.084;25.616;2023-03-03T04:03:47;65.63;;;29.70;;
41885;SDS011;27567;43.084;25.616;2023-03-03T04:06:31;63.38;;;28.23;;
41885;SDS011;27567;43.084;25.616;2023-03-03T04:09:15;62.60;;;28.85;;
41885;SDS011;27567;43.084;25.616;2023-03-03T04:11:59;64.07;;;30.45;;
41885;SDS011;27567;43.084;25.616;2023-03-03T04:14:43;63.95;;;30.23;;
41885;SDS011;27567;43.084;25.616;2023-03-03T04:17:27;68.85;;;29.92;;
41885;SDS011;27567;43.084;25.616;2023-03-03T04:20:12;61.25;;;29.40;;
41885;SDS011;27567;43.084;25.616;2023-03-03T04:22:56;59.08;;;29.02;;
41885;SDS011;27567;43.084;25.616;2023-03-03T04:25:40;64.10;;;30.63;;
41885;SDS011;27567;43.084;25.616;2023-03-03T04:28:24;57.53;;;28.55;;
41885;SDS011;27567;43.084;25.616;2023-03-03T04:31:10;57.42;;;28.23;;
41885;SDS011;27567;43.084;25.616;2023-03-03T04:33:54;61.78;;;30.13;;
41885;SDS011;27567;43.084;25.616;2023-03-03T04:36:38;69.43;;;30.50;;
41885;SDS011;27567;43.084;25.616;2023-03-03T04:39:23;62.53;;;28.55;;
41885;SDS011;27567;43.084;25.616;2023-03-03T04:42:07;60.85;;;29.05;;
41885;SDS011;27567;43.084;25.616;2023-03-03T04:44:51;59.38;;;27.95;;
41885;SDS011;27567;43.084;25.616;2023-03-03T04:47:34;59.92;;;28.70;;
41885;SDS011;27567;43.084;25.616;2023-03-03T04:50:18;66.78;;;30.20;;
41885;SDS011;27567;43.084;25.616;2023-03-03T04:53:03;60.08;;;29.23;;
41885;SDS011;27567;43.084;25.616;2023-03-03T04:55:50;58.33;;;27.45;;
41885;SDS011;27567;43.084;25.616;2023-03-03T04:58:34;61.97;;;29.90;;
41885;SDS011;27567;43.084;25.616;2023-03-03T05:01:18;64.03;;;29.23;;
41885;SDS011;27567;43.084;25.616;2023-03-03T05:04:02;57.55;;;28.42;;
41885;SDS011;27567;43.084;25.616;2023-03-03T05:06:46;64.80;;;31.25;;
41885;SDS011;27567;43.084;25.616;2023-03-03T05:09:30;65.53;;;29.77;;
41885;SDS011;27567;43.084;25.616;2023-03-03T05:12:14;69.97;;;30.70;;
41885;SDS011;27567;43.084;25.616;2023-03-03T05:14:57;56.38;;;28.08;;
41885;SDS011;27567;43.084;25.616;2023-03-03T05:17:41;59.42;;;30.55;;
41885;SDS011;27567;43.084;25.616;2023-03-03T05:20:25;72.90;;;32.97;;
41885;SDS011;27567;43.084;25.616;2023-03-03T05:23:09;63.60;;;30.38;;
41885;SDS011;27567;43.084;25.616;2023-03-03T05:25:53;62.03;;;30.00;;
41885;SDS011;27567;43.084;25.616;2023-03-03T05:28:37;73.97;;;33.13;;
41885;SDS011;27567;43.084;25.616;2023-03-03T05:31:21;69.80;;;32.38;;
41885;SDS011;27567;43.084;25.616;2023-03-03T05:34:06;71.00;;;32.10;;
41885;SDS011;27567;43.084;25.616;2023-03-03T05:36:50;70.88;;;31.77;;
41885;SDS011;27567;43.084;25.616;2023-03-03T05:39:34;71.18;;;31.08;;
41885;SDS011;27567;43.084;25.616;2023-03-03T05:42:17;74.07;;;33.17;;
41885;SDS011;27567;43.084;25.616;2023-03-03T05:45:01;72.57;;;31.95;;
41885;SDS011;27567;43.084;25.616;2023-03-03T05:47:46;76.57;;;32.97;;
41885;SDS011;27567;43.084;25.616;2023-03-03T05:50:30;76.15;;;34.58;;
41885;SDS011;27567;43.084;25.616;2023-03-03T05:53:14;80.68;;;32.92;;
41885;SDS011;27567;43.084;25.616;2023-03-03T05:55:58;81.07;;;33.70;;
41885;SDS011;27567;43.084;25.616;2023-03-03T05:58:42;88.32;;;34.88;;
41885;SDS011;27567;43.084;25.616;2023-03-03T06:01:26;82.40;;;34.47;;
41885;SDS011;27567;43.084;25.616;2023-03-03T06:04:11;86.90;;;36.42;;
41885;SDS011;27567;43.084;25.616;2023-03-03T06:06:55;87.38;;;36.63;;
41885;SDS011;27567;43.084;25.616;2023-03-03T06:09:39;83.60;;;36.22;;
41885;SDS011;27567;43.084;25.616;2023-03-03T06:12:23;81.22;;;36.65;;
41885;SDS011;27567;43.084;25.616;2023-03-03T06:15:07;86.05;;;34.95;;
41885;SDS011;27567;43.084;25.616;2023-03-03T06:17:51;106.55;;;43.08;;
41885;SDS011;27567;43.084;25.616;2023-03-03T06:20:35;139.98;;;59.20;;
41885;SDS011;27567;43.084;25.616;2023-03-03T06:23:21;146.20;;;57.70;;
41885;SDS011;27567;43.084;25.616;2023-03-03T06:26:05;127.07;;;50.42;;
41885;SDS011;27567;43.084;25.616;2023-03-03T06:28:49;102.88;;;43.20;;
41885;SDS011;27567;43.084;25.616;2023-03-03T06:31:36;100.88;;;42.80;;
41885;SDS011;27567;43.084;25.616;2023-03-03T06:34:20;87.35;;;38.05;;
41885;SDS011;27567;43.084;25.616;2023-03-03T06:37:04;90.28;;;38.00;;
41885;SDS011;27567;43.084;25.616;2023-03-03T06:39:48;89.93;;;37.65;;
41885;SDS011;27567;43.084;25.616;2023-03-03T06:42:34;88.85;;;36.03;;
41885;SDS011;27567;43.084;25.616;2023-03-03T06:45:18;89.18;;;37.05;;
41885;SDS011;27567;43.084;25.616;2023-03-03T06:48:02;88.20;;;38.47;;
41885;SDS011;27567;43.084;25.616;2023-03-03T06:50:46;97.97;;;40.15;;
41885;SDS011;27567;43.084;25.616;2023-03-03T06:53:31;107.78;;;42.15;;
41885;SDS011;27567;43.084;25.616;2023-03-03T06:56:15;94.15;;;37.72;;
41885;SDS011;27567;43.084;25.616;2023-03-03T06:59:00;94.47;;;38.22;;
41885;SDS011;27567;43.084;25.616;2023-03-03T07:01:46;90.07;;;37.63;;
41885;SDS011;27567;43.084;25.616;2023-03-03T07:04:31;91.43;;;35.90;;
41885;SDS011;27567;43.084;25.616;2023-03-03T07:07:23;86.80;;;35.55;;
41885;SDS011;27567;43.084;25.616;2023-03-03T07:10:17;82.57;;;34.95;;
41885;SDS011;27567;43.084;25.616;2023-03-03T07:13:22;84.63;;;34.47;;
41885;SDS011;27567;43.084;25.616;2023-03-03T07:16:08;78.82;;;34.35;;
41885;SDS011;27567;43.084;25.616;2023-03-03T07:18:55;73.82;;;32.05;;
41885;SDS011;27567;43.084;25.616;2023-03-03T07:21:40;71.07;;;31.85;;
41885;SDS011;27567;43.084;25.616;2023-03-03T07:24:28;75.50;;;32.55;;
41885;SDS011;27567;43.084;25.616;2023-03-03T07:32:53;112.47;;;46.15;;
41885;SDS011;27567;43.084;25.616;2023-03-03T07:35:42;75.75;;;33.10;;
41885;SDS011;27567;43.084;25.616;2023-03-03T07:38:33;79.63;;;33.67;;
41885;SDS011;27567;43.084;25.616;2023-03-03T07:41:18;78.15;;;32.22;;
41885;SDS011;27567;43.084;25.616;2023-03-03T07:44:16;77.63;;;32.70;;
41885;SDS011;27567;43.084;25.616;2023-03-03T07:47:11;79.00;;;32.58;;
41885;SDS011;27567;43.084;25.616;2023-03-03T07:49:58;71.65;;;29.88;;
41885;SDS011;27567;43.084;25.616;2023-03-03T07:52:45;85.70;;;34.97;;
41885;SDS011;27567;43.084;25.616;2023-03-03T07:55:35;78.15;;;33.78;;
41885;SDS011;27567;43.084;25.616;2023-03-03T07:58:20;64.80;;;29.77;;
41885;SDS011;27567;43.084;25.616;2023-03-03T08:03:56;68.78;;;32.53;;
41885;SDS011;27567;43.084;25.616;2023-03-03T08:06:44;68.97;;;31.90;;
41885;SDS011;27567;43.084;25.616;2023-03-03T08:15:07;79.95;;;33.75;;
41885;SDS011;27567;43.084;25.616;2023-03-03T08:17:54;72.07;;;31.40;;
41885;SDS011;27567;43.084;25.616;2023-03-03T08:21:13;74.80;;;31.50;;
41885;SDS011;27567;43.084;25.616;2023-03-03T08:23:49;66.78;;;27.42;;
41885;SDS011;27567;43.084;25.616;2023-03-03T08:26:34;59.53;;;27.42;;
41885;SDS011;27567;43.084;25.616;2023-03-03T08:29:18;68.00;;;28.67;;
41885;SDS011;27567;43.084;25.616;2023-03-03T08:32:03;65.15;;;29.58;;
41885;SDS011;27567;43.084;25.616;2023-03-03T08:34:47;67.25;;;29.33;;
41885;SDS011;27567;43.084;25.616;2023-03-03T08:37:31;67.82;;;28.23;;
41885;SDS011;27567;43.084;25.616;2023-03-03T08:40:15;63.83;;;28.20;;
41885;SDS011;27567;43.084;25.616;2023-03-03T08:42:59;70.47;;;29.40;;
41885;SDS011;27567;43.084;25.616;2023-03-03T08:45:44;62.65;;;29.23;;
41885;SDS011;27567;43.084;25.616;2023-03-03T08:48:28;55.45;;;27.10;;
41885;SDS011;27567;43.084;25.616;2023-03-03T08:51:12;58.97;;;28.05;;
41885;SDS011;27567;43.084;25.616;2023-03-03T08:53:56;63.92;;;27.63;;
41885;SDS011;27567;43.084;25.616;2023-03-03T08:56:40;57.90;;;26.52;;
41885;SDS011;27567;43.084;25.616;2023-03-03T08:59:24;51.10;;;22.83;;
41885;SDS011;27567;43.084;25.616;2023-03-03T09:02:08;48.05;;;22.98;;
41885;SDS011;27567;43.084;25.616;2023-03-03T09:04:52;52.10;;;24.67;;
41885;SDS011;27567;43.084;25.616;2023-03-03T09:07:37;49.85;;;23.63;;
41885;SDS011;27567;43.084;25.616;2023-03-03T09:10:22;48.00;;;22.65;;
41885;SDS011;27567;43.084;25.616;2023-03-03T09:13:15;47.15;;;22.08;;
41885;SDS011;27567;43.084;25.616;2023-03-03T09:15:59;53.13;;;25.10;;
41885;SDS011;27567;43.084;25.616;2023-03-03T09:18:43;45.80;;;23.00;;
41885;SDS011;27567;43.084;25.616;2023-03-03T09:21:29;53.35;;;24.60;;
41885;SDS011;27567;43.084;25.616;2023-03-03T09:24:30;53.22;;;24.65;;
41885;SDS011;27567;43.084;25.616;2023-03-03T09:27:21;62.50;;;26.27;;
41885;SDS011;27567;43.084;25.616;2023-03-03T09:30:20;58.30;;;27.75;;
41885;SDS011;27567;43.084;25.616;2023-03-03T09:33:43;53.90;;;25.90;;
41885;SDS011;27567;43.084;25.616;2023-03-03T09:39:23;56.53;;;25.42;;
41885;SDS011;27567;43.084;25.616;2023-03-03T09:45:25;59.33;;;26.58;;
41885;SDS011;27567;43.084;25.616;2023-03-03T09:56:58;58.00;;;24.63;;
41885;SDS011;27567;43.084;25.616;2023-03-03T10:02:46;72.38;;;33.13;;
41885;SDS011;27567;43.084;25.616;2023-03-03T10:05:43;59.28;;;27.10;;
41885;SDS011;27567;43.084;25.616;2023-03-03T10:11:23;50.13;;;23.73;;
41885;SDS011;27567;43.084;25.616;2023-03-03T10:17:40;52.80;;;22.40;;
41885;SDS011;27567;43.084;25.616;2023-03-03T10:23:17;60.42;;;24.40;;
41885;SDS011;27567;43.084;25.616;2023-03-03T10:37:27;57.17;;;25.98;;
41885;SDS011;27567;43.084;25.616;2023-03-03T11:00:30;45.95;;;20.73;;
41885;SDS011;27567;43.084;25.616;2023-03-03T11:06:53;43.55;;;19.83;;
41885;SDS011;27567;43.084;25.616;2023-03-03T11:20:35;42.58;;;18.70;;
41885;SDS011;27567;43.084;25.616;2023-03-03T11:26:19;44.40;;;20.10;;
41885;SDS011;27567;43.084;25.616;2023-03-03T11:29:56;39.95;;;19.73;;
41885;SDS011;27567;43.084;25.616;2023-03-03T11:35:15;51.13;;;22.40;;
41885;SDS011;27567;43.084;25.616;2023-03-03T11:38:18;49.67;;;20.88;;
41885;SDS011;27567;43.084;25.616;2023-03-03T11:41:28;44.30;;;20.60;;
41885;SDS011;27567;43.084;25.616;2023-03-03T12:08:12;47.63;;;21.80;;
41885;SDS011;27567;43.084;25.616;2023-03-03T12:11:12;50.95;;;22.33;;
41885;SDS011;27567;43.084;25.616;2023-03-03T12:28:09;53.63;;;23.92;;
41885;SDS011;27567;43.084;25.616;2023-03-03T12:33:58;68.55;;;27.02;;
41885;SDS011;27567;43.084;25.616;2023-03-03T12:39:45;63.35;;;25.23;;
41885;SDS011;27567;43.084;25.616;2023-03-03T12:48:14;65.38;;;25.35;;
41885;SDS011;27567;43.084;25.616;2023-03-03T13:00:02;59.78;;;26.02;;
41885;SDS011;27567;43.084;25.616;2023-03-03T13:09:16;68.93;;;25.67;;
41885;SDS011;27567;43.084;25.616;2023-03-03T13:12:23;60.72;;;25.77;;
41885;SDS011;27567;43.084;25.616;2023-03-03T13:18:13;74.82;;;25.80;;
41885;SDS011;27567;43.084;25.616;2023-03-03T13:26:35;60.40;;;24.85;;
41885;SDS011;27567;43.084;25.616;2023-03-03T13:29:29;60.33;;;26.43;;
41885;SDS011;27567;43.084;25.616;2023-03-03T13:32:16;65.68;;;24.33;;
41885;SDS011;27567;43.084;25.616;2023-03-03T13:43:47;66.13;;;26.92;;
41885;SDS011;27567;43.084;25.616;2023-03-03T13:58:17;72.47;;;26.35;;
41885;SDS011;27567;43.084;25.616;2023-03-03T14:01:27;67.93;;;27.17;;
41885;SDS011;27567;43.084;25.616;2023-03-03T14:07:17;71.63;;;27.23;;
41885;SDS011;27567;43.084;25.616;2023-03-03T14:10:18;67.87;;;26.27;;
41885;SDS011;27567;43.084;25.616;2023-03-03T14:13:11;66.93;;;26.35;;
41885;SDS011;27567;43.084;25.616;2023-03-03T14:15:57;70.55;;;27.02;;
41885;SDS011;27567;43.084;25.616;2023-03-03T14:18:58;65.30;;;26.33;;
41885;SDS011;27567;43.084;25.616;2023-03-03T14:24:29;66.20;;;25.02;;
41885;SDS011;27567;43.084;25.616;2023-03-03T14:27:27;60.45;;;24.52;;
41885;SDS011;27567;43.084;25.616;2023-03-03T14:38:42;64.63;;;25.13;;
41885;SDS011;27567;43.084;25.616;2023-03-03T14:41:34;57.03;;;22.90;;
41885;SDS011;27567;43.084;25.616;2023-03-03T14:49:54;66.68;;;24.02;;
41885;SDS011;27567;43.084;25.616;2023-03-03T14:52:39;58.33;;;22.42;;
41885;SDS011;27567;43.084;25.616;2023-03-03T14:55:30;60.72;;;25.48;;
41885;SDS011;27567;43.084;25.616;2023-03-03T14:58:30;60.83;;;25.35;;
41885;SDS011;27567;43.084;25.616;2023-03-03T15:01:16;71.97;;;26.92;;
41885;SDS011;27567;43.084;25.616;2023-03-03T15:04:04;66.32;;;26.75;;
41885;SDS011;27567;43.084;25.616;2023-03-03T15:06:54;73.45;;;26.95;;
41885;SDS011;27567;43.084;25.616;2023-03-03T15:09:39;62.25;;;24.90;;
41885;SDS011;27567;43.084;25.616;2023-03-03T15:12:36;65.50;;;25.48;;
41885;SDS011;27567;43.084;25.616;2023-03-03T15:15:21;58.78;;;23.45;;
41885;SDS011;27567;43.084;25.616;2023-03-03T15:18:09;63.50;;;25.02;;
41885;SDS011;27567;43.084;25.616;2023-03-03T15:26:44;48.13;;;19.25;;
41885;SDS011;27567;43.084;25.616;2023-03-03T15:44:11;58.92;;;21.48;;
41885;SDS011;27567;43.084;25.616;2023-03-03T15:47:00;53.88;;;22.15;;
41885;SDS011;27567;43.084;25.616;2023-03-03T15:53:01;64.95;;;25.15;;
41885;SDS011;27567;43.084;25.616;2023-03-03T16:01:34;80.82;;;26.63;;
41885;SDS011;27567;43.084;25.616;2023-03-03T16:04:23;73.35;;;26.98;;
41885;SDS011;27567;43.084;25.616;2023-03-03T16:07:24;74.97;;;26.73;;
41885;SDS011;27567;43.084;25.616;2023-03-03T16:19:24;79.82;;;28.40;;
41885;SDS011;27567;43.084;25.616;2023-03-03T16:22:25;63.25;;;25.92;;
41885;SDS011;27567;43.084;25.616;2023-03-03T16:28:37;77.30;;;26.73;;
41885;SDS011;27567;43.084;25.616;2023-03-03T16:39:45;76.00;;;26.58;;
41885;SDS011;27567;43.084;25.616;2023-03-03T16:42:33;77.68;;;27.33;;
41885;SDS011;27567;43.084;25.616;2023-03-03T16:45:25;85.82;;;27.70;;
41885;SDS011;27567;43.084;25.616;2023-03-03T16:48:19;81.20;;;26.27;;
41885;SDS011;27567;43.084;25.616;2023-03-03T16:54:05;88.90;;;29.58;;
41885;SDS011;27567;43.084;25.616;2023-03-03T16:56:53;89.38;;;27.38;;
41885;SDS011;27567;43.084;25.616;2023-03-03T16:59:44;77.78;;;27.50;;
41885;SDS011;27567;43.084;25.616;2023-03-03T17:11:07;80.63;;;27.27;;
41885;SDS011;27567;43.084;25.616;2023-03-03T17:17:19;93.53;;;28.20;;
41885;SDS011;27567;43.084;25.616;2023-03-03T17:23:04;84.10;;;27.83;;
41885;SDS011;27567;43.084;25.616;2023-03-03T17:25:56;81.43;;;26.98;;
41885;SDS011;27567;43.084;25.616;2023-03-03T17:28:59;82.80;;;30.73;;
41885;SDS011;27567;43.084;25.616;2023-03-03T17:37:32;90.35;;;30.75;;
41885;SDS011;27567;43.084;25.616;2023-03-03T17:40:24;93.43;;;30.50;;
41885;SDS011;27567;43.084;25.616;2023-03-03T17:43:16;77.40;;;28.40;;
41885;SDS011;27567;43.084;25.616;2023-03-03T17:46:03;86.20;;;30.15;;
41885;SDS011;27567;43.084;25.616;2023-03-03T17:52:02;93.10;;;30.48;;
41885;SDS011;27567;43.084;25.616;2023-03-03T18:27:32;67.13;;;27.00;;
41885;SDS011;27567;43.084;25.616;2023-03-03T18:33:07;79.68;;;28.75;;
41885;SDS011;27567;43.084;25.616;2023-03-03T18:35:52;80.60;;;28.70;;
41885;SDS011;27567;43.084;25.616;2023-03-03T18:38:50;79.53;;;29.65;;
41885;SDS011;27567;43.084;25.616;2023-03-03T18:44:38;80.00;;;30.42;;
41885;SDS011;27567;43.084;25.616;2023-03-03T18:47:56;75.35;;;29.63;;
41885;SDS011;27567;43.084;25.616;2023-03-03T18:50:31;83.55;;;29.75;;
41885;SDS011;27567;43.084;25.616;2023-03-03T18:56:01;90.32;;;33.35;;
41885;SDS011;27567;43.084;25.616;2023-03-03T18:58:47;88.57;;;33.70;;
41885;SDS011;27567;43.084;25.616;2023-03-03T19:01:34;97.30;;;35.20;;
41885;SDS011;27567;43.084;25.616;2023-03-03T19:04:24;82.43;;;32.13;;
41885;SDS011;27567;43.084;25.616;2023-03-03T19:13:07;93.25;;;35.65;;
41885;SDS011;27567;43.084;25.616;2023-03-03T19:16:30;96.95;;;36.55;;
41885;SDS011;27567;43.084;25.616;2023-03-03T19:19:14;93.90;;;35.92;;
41885;SDS011;27567;43.084;25.616;2023-03-03T19:22:44;100.60;;;36.95;;
41885;SDS011;27567;43.084;25.616;2023-03-03T19:25:25;96.93;;;34.10;;
41885;SDS011;27567;43.084;25.616;2023-03-03T19:31:00;100.53;;;35.50;;
41885;SDS011;27567;43.084;25.616;2023-03-03T19:39:42;94.82;;;35.35;;
41885;SDS011;27567;43.084;25.616;2023-03-03T19:42:32;103.30;;;36.22;;
41885;SDS011;27567;43.084;25.616;2023-03-03T19:45:34;106.15;;;38.50;;
41885;SDS011;27567;43.084;25.616;2023-03-03T19:48:24;110.43;;;39.22;;
41885;SDS011;27567;43.084;25.616;2023-03-03T19:51:13;126.70;;;44.45;;
41885;SDS011;27567;43.084;25.616;2023-03-03T19:54:06;133.05;;;46.22;;
41885;SDS011;27567;43.084;25.616;2023-03-03T19:56:54;126.28;;;46.30;;
41885;SDS011;27567;43.084;25.616;2023-03-03T19:59:41;131.25;;;46.42;;
41885;SDS011;27567;43.084;25.616;2023-03-03T20:02:41;128.27;;;43.80;;
41885;SDS011;27567;43.084;25.616;2023-03-03T20:08:39;113.63;;;40.47;;
41885;SDS011;27567;43.084;25.616;2023-03-03T20:26:54;98.15;;;36.58;;
41885;SDS011;27567;43.084;25.616;2023-03-03T20:35:26;100.30;;;35.80;;
41885;SDS011;27567;43.084;25.616;2023-03-03T20:44:13;98.35;;;37.28;;
41885;SDS011;27567;43.084;25.616;2023-03-03T20:47:10;110.60;;;38.35;;
41885;SDS011;27567;43.084;25.616;2023-03-03T20:50:39;117.13;;;43.72;;
41885;SDS011;27567;43.084;25.616;2023-03-03T21:01:44;127.30;;;45.58;;
41885;SDS011;27567;43.084;25.616;2023-03-03T21:04:31;278.10;;;64.82;;
41885;SDS011;27567;43.084;25.616;2023-03-03T21:07:23;124.90;;;46.22;;
41885;SDS011;27567;43.084;25.616;2023-03-03T21:10:13;130.27;;;47.33;;
41885;SDS011;27567;43.084;25.616;2023-03-03T21:13:20;122.15;;;44.70;;
41885;SDS011;27567;43.084;25.616;2023-03-03T21:19:00;114.53;;;41.20;;
41885;SDS011;27567;43.084;25.616;2023-03-03T21:21:45;111.85;;;43.83;;
41885;SDS011;27567;43.084;25.616;2023-03-03T21:24:51;127.53;;;45.83;;
41885;SDS011;27567;43.084;25.616;2023-03-03T21:27:36;109.43;;;42.42;;
41885;SDS011;27567;43.084;25.616;2023-03-03T21:30:20;129.45;;;46.33;;
41885;SDS011;27567;43.084;25.616;2023-03-03T21:33:04;118.75;;;41.90;;
41885;SDS011;27567;43.084;25.616;2023-03-03T21:35:57;123.60;;;45.88;;
41885;SDS011;27567;43.084;25.616;2023-03-03T21:38:41;116.32;;;44.03;;
41885;SDS011;27567;43.084;25.616;2023-03-03T21:41:26;121.53;;;46.80;;
41885;SDS011;27567;43.084;25.616;2023-03-03T21:44:32;124.72;;;46.05;;
41885;SDS011;27567;43.084;25.616;2023-03-03T21:47:15;118.85;;;43.00;;
41885;SDS011;27567;43.084;25.616;2023-03-03T21:49:59;127.13;;;44.15;;
41885;SDS011;27567;43.084;25.616;2023-03-03T21:52:43;113.68;;;43.83;;
41885;SDS011;27567;43.084;25.616;2023-03-03T21:55:27;119.20;;;41.95;;
41885;SDS011;27567;43.084;25.616;2023-03-03T21:58:11;104.95;;;42.42;;
41885;SDS011;27567;43.084;25.616;2023-03-03T22:00:55;118.13;;;41.85;;
41885;SDS011;27567;43.084;25.616;2023-03-03T22:03:39;119.00;;;41.22;;
41885;SDS011;27567;43.084;25.616;2023-03-03T22:06:26;108.93;;;41.05;;
41885;SDS011;27567;43.084;25.616;2023-03-03T22:09:10;120.20;;;44.15;;
41885;SDS011;27567;43.084;25.616;2023-03-03T22:11:54;116.40;;;41.97;;
41885;SDS011;27567;43.084;25.616;2023-03-03T22:14:38;113.30;;;42.97;;
41885;SDS011;27567;43.084;25.616;2023-03-03T22:17:22;115.13;;;43.08;;
41885;SDS011;27567;43.084;25.616;2023-03-03T22:20:08;112.03;;;40.92;;
41885;SDS011;27567;43.084;25.616;2023-03-03T22:22:52;110.07;;;40.97;;
41885;SDS011;27567;43.084;25.616;2023-03-03T22:25:36;115.53;;;42.20;;
41885;SDS011;27567;43.084;25.616;2023-03-03T22:28:21;116.82;;;42.83;;
41885;SDS011;27567;43.084;25.616;2023-03-03T22:31:05;122.30;;;42.83;;
41885;SDS011;27567;43.084;25.616;2023-03-03T22:33:49;119.65;;;44.15;;
41885;SDS011;27567;43.084;25.616;2023-03-03T22:36:34;115.05;;;43.72;;
41885;SDS011;27567;43.084;25.616;2023-03-03T22:39:17;128.90;;;47.63;;
41885;SDS011;27567;43.084;25.616;2023-03-03T22:42:01;123.95;;;50.03;;